This is the latest recevied weather packets stored in our database for station/object N3WPH. If no packets are shown the sender has not sent any weather packets the latest 10 day(s).
| Time | Temp. | Humidity | Pressure | Rain* | Wind** | Luminosity | Snow |
|---|---|---|---|---|---|---|---|
| 1777923034 | 22.22° C | 36% | 1008.8 hPa | 0 mm | - | 619 W/m² | - |
| 1777922732 | 22.78° C | 38% | 1008.6 hPa | 0 mm | - | 630 W/m² | - |
| 1777922430 | 21.67° C | 39% | 1008.9 hPa | 0 mm | - | 662 W/m² | - |
| 1777922127 | 21.67° C | 40% | 1008.9 hPa | 0 mm | - | 655 W/m² | - |
| 1777921823 | 21.67° C | 37% | 1009.1 hPa | 0 mm | - | 663 W/m² | - |
| 1777921520 | 21.11° C | 38% | 1009 hPa | 0 mm | - | 721 W/m² | - |
| 1777921216 | 20.56° C | 39% | 1009.3 hPa | 0 mm | - | 718 W/m² | - |
| 1777920913 | 21.11° C | 38% | 1009 hPa | 0 mm | - | 215 W/m² | - |
| 1777920609 | 21.11° C | 38% | 1009.2 hPa | 0 mm | - | 606 W/m² | - |
| 1777920304 | 21.67° C | 38% | 1009 hPa | 0 mm | - | 756 W/m² | - |
| 1777920000 | 21.67° C | 36% | 1009.3 hPa | 0 mm | - | 734 W/m² | - |
| 1777919697 | 21.67° C | 42% | 1009.3 hPa | 0 mm | - | 730 W/m² | - |
| 1777919395 | 21.11° C | 37% | 1009.2 hPa | 0 mm | - | 739 W/m² | - |
| 1777919092 | 21.11° C | 37% | 1009.2 hPa | 0 mm | - | 733 W/m² | - |
| 1777918789 | 21.11° C | 39% | 1009.4 hPa | 0 mm | - | 742 W/m² | - |
| 1777918486 | 21.67° C | 38% | 1009.3 hPa | 0 mm | - | 760 W/m² | - |
| 1777918185 | 20.56° C | 44% | 1009.4 hPa | 0 mm | - | 766 W/m² | - |
| 1777917884 | 20.56° C | 41% | 1009.5 hPa | 0 mm | - | 754 W/m² | - |
| 1777917581 | 21.11° C | 38% | 1009.5 hPa | 0 mm | - | 753 W/m² | - |
| 1777917278 | 21.11° C | 39% | 1009.5 hPa | 0 mm | - | 756 W/m² | - |
| 1777916976 | 21.11° C | 40% | 1009.6 hPa | 0 mm | - | 763 W/m² | - |
| 1777916673 | 21.11° C | 40% | 1009.5 hPa | 0 mm | - | 771 W/m² | - |
| 1777916370 | 20.56° C | 39% | 1009.6 hPa | 0 mm | - | 767 W/m² | - |
| 1777916066 | 20.56° C | 41% | 1009.7 hPa | 0 mm | - | 773 W/m² | - |
| 1777915764 | 20.56° C | 42% | 1009.8 hPa | 0 mm | - | 776 W/m² | - |
* Rain latest hour (hover to see other rain measurements)
** Current wind speed in m/s (hover to see current wind gust speed)